x

West Washington - 300nm West Of Aberdeen, Wa (46005) Wave Buoy

1:50am - Sat 23rd Aug 2014 All times are UTC.

  • Sig Wave height 4.6ft
  • Swell Direction
  • Peak Period 6s
  • Average Period 5s
  • Wind
    18mph, 22mph gusts
  • Sea Temp 67°f
  • Air Temp 65°f
  • Sea Pressure 1024.3mb

More Historic Weather Station data

Upgrade to MSW Pro to gain access to the past 30 days of data for over 8000 Wavebouys and Weather Stations around the globe.

Join Pro

Comparision Forecast

View Surf forecast
   
Sat 08/23 1:50am 4.5ft 6s 5s 18 22 mph 1024.3mb 67f 65f
12:50am 5ft 6s 5s 18 22 mph 1024.3mb 67f 65f
Fri 08/22 11:50pm 5ft 7s 5s 18 20 mph 1024.3mb 67f 65f
10:50pm 5ft 6s 5s 18 20 mph 1024.3mb 67f 66f
9:50pm 5.5ft 6s 6s 18 20 mph 1024.2mb 67f 65f
8:50pm 5.5ft 7s 5s 16 18 mph 1023.8mb 67f 65f
7:50pm 6ft 8s 6s 18 20 mph 1023.8mb 67f 65f
6:50pm 6ft 8s 6s 16 18 mph 1023.7mb 67f 65f
5:50pm 5.5ft 8s 6s 16 18 mph 1023.2mb 66f 66f
4:50pm 5.5ft 8s 5s 16 20 mph 1022.7mb 66f 65f
3:50pm 5.5ft 8s 5s 18 22 mph 1022.5mb 66f 65f
2:50pm 5ft 8s 5s 20 25 mph 1021.9mb 66f 65f
1:50pm 5.5ft 8s 6s 18 22 mph 1021.2mb 66f 65f
12:50pm 6ft 9s 6s 13 18 mph 1020.8mb 66f 66f
11:50am 6ft 8s 6s 16 18 mph 1020.4mb 67f 65f
10:50am 6ft 9s 6s 16 20 mph 1020.2mb 67f 65f
9:50am 6ft 8s 6s 18 20 mph 1020mb 67f 66f
8:50am 5ft 8s 6s 16 20 mph 1019.6mb 67f 66f
7:50am 6ft 8s 6s 16 18 mph 1019.2mb 67f 65f
6:50am 6ft 8s 6s 16 18 mph 1019.1mb 67f 65f
5:50am 6ft 8s 6s 16 20 mph 1018.8mb 67f 65f
4:50am 6ft 7s 6s 16 18 mph 1018.5mb 67f 65f
3:50am 5.5ft 8s 6s 16 20 mph 1017.9mb 67f 65f
2:50am 6ft 7s 6s 18 20 mph 1017.8mb 67f 65f
1:50am 5.5ft 7s 5s 16
mph
1017.8mb 67f 64f
12:50am 6ft 7s 5s 16 20 mph 1017.9mb 67f 63f
Thu 08/21 11:50pm 6ft 7s 6s 18 20 mph 1017.8mb 67f 65f
10:50pm 5.5ft 7s 5s 20 25 mph 1017.9mb 67f 65f
9:50pm 5ft 6s 5s 20 25 mph 1018.1mb 67f 64f
8:50pm 5ft 7s 5s 18 22 mph 1017.8mb 67f 65f
7:50pm 5ft 7s 5s 16 18 mph 1018mb 67f 65f
6:50pm 5ft 7s 6s 16 20 mph 1018mb 67f 66f
5:50pm 5ft 6s 5s 16 20 mph 1017.8mb 67f 65f
4:50pm 5ft 7s 5s 16 18 mph 1017.6mb 67f 66f
3:50pm 5ft 7s 5s 18 20 mph 1017.7mb 67f 66f
2:50pm 4.5ft 14s 5s 16 18 mph 1017.5mb 67f 66f
1:50pm 5ft 6s 5s 16 20 mph 1017mb 67f 66f
12:50pm 5ft 6s 5s 16 18 mph 1017.1mb 67f 66f
11:50am 5ft 7s 6s 13 16 mph 1017.1mb 67f 66f
10:50am 5ft 7s 6s 11 13 mph 1017.5mb 67f 65f
9:50am 5ft 6s 6s 16 18 mph 1017.7mb 67f 66f
8:50am 5ft 6s 6s 16 18 mph 1017.8mb 67f 66f
7:50am 5.5ft 7s 6s 16 18 mph 1017.7mb 67f 66f
6:50am 5ft 7s 5s 18 22 mph 1017.6mb 67f 66f
5:50am 5ft 7s 6s 16 18 mph 1017.6mb 67f 66f
4:50am 5ft 7s 6s 13 18 mph 1017.5mb 67f 66f
3:50am 4.5ft 6s 6s 16 18 mph 1017.1mb 67f 66f
2:50am 4.5ft 7s 6s 16 18 mph 1017.3mb 67f 66f
1:50am 4.5ft 7s 6s 13 16 mph 1017.6mb 67f 67f
12:50am 4.5ft 7s 6s 11 16 mph 1017.9mb 67f 66f
Wed 08/20 11:50pm 4.5ft 8s 6s 11 13 mph 1018.1mb 67f 66f
10:50pm 4.5ft 8s 6s 9 11 mph 1018.5mb 67f 66f
9:50pm 5ft 7s 6s 7 9 mph 1018.9mb 67f 65f
8:50pm 4.5ft 7s 6s 9
mph
1018.8mb 67f 66f
7:50pm 5ft 7s 6s 9
mph
1019.1mb 67f 66f
6:50pm 5ft 7s 6s 7
mph
1018.7mb 67f 66f
5:50pm 5ft 6s 6s 7 9 mph 1018.7mb 67f 65f
4:50pm 4.5ft 6s 6s 4
mph
1018.3mb 67f 65f
3:50pm 5ft 8s 6s 7
mph
1018.2mb 67f 65f
2:50pm 4.5ft 9s 6s 9
mph
1017.8mb 67f 65f
1:50pm 4.5ft 7s 6s 9 11 mph 1017.5mb 67f 66f
12:50pm 5ft 9s 6s 9 11 mph 1017.3mb 67f 66f
11:50am 4.5ft 7s 6s 9 11 mph 1017.2mb 67f 65f
10:50am 4.5ft 10s 6s 13 16 mph 1017.3mb 67f 65f
9:50am 5ft 10s 6s 11 13 mph 1016.8mb 67f 65f
8:50am 5ft 7s 6s 9 11 mph 1016.8mb 67f 65f
7:50am 5.5ft 6s 6s 9 11 mph 1016.7mb 67f 65f
6:50am 6ft 6s 6s 13 16 mph 1016.7mb 67f 65f
5:50am 6ft 7s 6s 16 18 mph 1016.3mb 67f 65f
3:50am 5.5ft 10s 6s 18 20 mph 1015.8mb 67f 65f
2:50am 5ft 8s 6s 20 22 mph 1015.5mb 67f 66f
1:50am 5.5ft 11s 6s 20 22 mph 1015.5mb 67f 66f
12:50am 5ft 10s 6s 18 22 mph 1015.5mb 67f 67f
Tue 08/19 11:50pm 5ft 11s 6s 18 20 mph 1015.6mb 67f 66f
10:50pm 5ft 10s 6s 16 20 mph 1015.9mb 67f 66f
9:50pm 5ft 10s 6s 16 18 mph 1016.3mb 67f 66f
8:50pm 5ft 10s 6s 13 18 mph 1016.6mb 67f 66f
7:50pm 5ft 11s 6s 11 13 mph 1017mb 67f 66f
6:50pm 5ft 10s 6s 11 13 mph 1016.9mb 67f 66f
5:50pm 5.5ft 10s 6s 11 13 mph 1017.1mb 67f 65f
4:50pm 5ft 11s 6s 11 13 mph 1017.2mb 67f 65f
3:50pm 5.5ft 11s 6s 13 16 mph 1017.1mb 67f 65f
2:50pm 5.5ft 11s 6s 16 20 mph 1017mb 67f 65f
1:50pm 5.5ft 11s 6s 16 18 mph 1017.1mb 67f 66f
12:50pm 5.5ft 11s 6s 13 18 mph 1017.5mb 67f 66f
11:50am 5.5ft 9s 6s 16 18 mph 1017.9mb 67f 66f
10:50am 5.5ft 11s 6s 13 16 mph 1017.9mb 67f 65f
9:50am 6ft 11s 6s 13 18 mph 1018.1mb 67f 65f
8:50am 6ft 11s 6s 16 18 mph 1018.3mb 67f 65f
7:50am 6ft 11s 6s 16 20 mph 1018.9mb 67f 65f
6:50am 6ft 12s 6s 16 18 mph 1019mb 67f 65f
5:50am 5.5ft 9s 6s 16 22 mph 1019.2mb 67f 65f
4:50am 6ft 12s 6s 18 22 mph 1019.4mb 67f 65f
3:50am 5.5ft 12s 6s 18 22 mph 1019.5mb 67f 65f
2:50am 5.5ft 9s 6s 18 20 mph 1019.4mb 67f 65f